My Meet Scores
Mei Luangkhot, Arena Gymnastics Inc. - MyMeetScores.com
Top100 | Top Teams | Upcoming Meets | Completed Meets | Latest | Add Scores | Help| Support | Bookmark and Share

Mei Luangkhot, Arena Gymnastics Inc.
Personal Bests
LevelVault BarsBeamFloorAA
XG9.3009.400 9.5009.35037.500
XS8.4009.300 9.2009.10035.600
Meet Scores
Date Meet Team Session Level Division Vault Bars Beam Floor AA
2019-12-14 Reindeer Games 2019 Arena Gymnastics Inc. 6 XG Senior 9.250 5 9.000 8 9.150 5T 9.050 6T 36.450 7
2019-11-09 2019 PHS Turkey Tumble Arena Gymnastics Inc. 5 XG Jr C 8.550 3 8.950 5 8.900 3 9.000 3T 35.400 3
2019-04-27 Xcel Gold, Platinum, Diamond State Championsh Arena Gymnastics Inc. 2 XG Sr D 9.025 29T 7.200 58 8.350 52 8.800 38T 33.375 56
2019-03-02 2019 Holiday Costume Cup Arena Gymnastics Inc. 7 XG Senior 8.450 8 8.900 6 9.350 2 9.050 10 35.750 6
2019-02-22 2019 February Flip Invitational Arena Gymnastics Inc. 1 XG 14 up 9.300 4T 9.350 6T 9.500 4 9.350 2T 37.500 4
2019-02-09 2/9-2/10 CT Inhouse Valentines Invitational Arena Gymnastics Inc. 2 XG Older 9.300 4 9.000 10T 9.000 6T 8.750 14 36.050 7
2018-11-30 New England Invitational Arena Gymnastics Inc. 3 XG 14 Older 9.000 4T 9.000 6T 9.000 2T 9.100 6 36.100 3
2018-11-17 2018 Connecticut Judge's Cup Arena Gymnastics Inc. 8 XG 13+ yrs. 9.000 4T 8.200 30T 9.075 6 8.850 25T 35.125 12T
2018-11-10 2018 Turkey Tumble Arena Gymnastics Inc. 3 XG Older 8.200 8 8.550 6T 8.800 5 8.350 8 33.900 7
2018-04-21 2018 Connecticut XG, XP, XD State Championships Arena Gymnastics Inc. 5 XG Sr. A 8.650 26T 8.100 47T 8.500 39T 8.800 42T 34.050 45
2018-03-01 Holiday Costume Cup 2018 Arena Gymnastics Inc. 10 XG Sr A 8.600 6T 9.200 3 8.950 5 8.750 9 35.500 5T
2018-02-23 2018 February Flip Invitational Arena Gymnastics Inc. 3 XG 14 up 8.400 12 9.250 12T 8.775 10 8.900 10 35.325 10
2018-01-19 Kinetic Kids Invitational Arena Gymnastics Inc. 5 XG Sr A 8.575 8 8.550 4 8.150 7 8.250 9 33.525 7
2017-12-15 Reindeer Games 2017 Arena Gymnastics Inc. 3 XG Senior 8.650 12 8.600 7 8.800 8T 8.900 8T 34.950 9
2017-04-29 Xcel Gold, Platinum, Diamond State Championships Arena Gymnastics Inc. 7 XG Jr. C 8.700 13 8.775 9 9.050 10 8.400 15 34.925 13
2017-03-02 2017 Holiday Costume Cup Arena Gymnastics Inc. 6 XG Older 8.300 6 8.700 6 8.800 8 8.100 12 33.900 10
2017-02-23 2017 February Flip Invitational Arena Gymnastics Inc. 4 XG 13 Yrs 8.500 11T 9.200 5 8.900 4T 8.250 12 34.850 10
2017-01-27 24th Annual American Invitational Arena Gymnastics Inc. 3A XG Child 8.325 21 8.500 22T 8.675 16T 8.350 21T 33.850 22
2016-04-23 2016 Connecticut XG, XP, XD State Meet Arena Gymnastics Inc. 5 XG Ch.D 8.400 18 8.925 7 8.300 15 8.500 18 34.125 17
2016-02-26 2016 February Flip Arena Gymnastics Inc. 4 XG 12 yrs. 8.700 17 8.500 12T 8.400 14 9.100 14T 34.700 15
2015-12-11 2015 Reindeer Games Arena Gymnastics Inc. 6 XG Junior 9.000 13T 9.400 4 9.150 9T 8.850 22T 36.400 8
2015-03-05 Holiday Costume Cup 2015 Arena Gymnastics Inc. 9 XS Jr C 8.300 9 9.300 3T 8.900 9 9.100 3 35.600 5T
2014-12-19 Reindeer Games 2014 Arena Gymnastics Inc. 6 XS Inter 8.400 11 9.250 4T 8.850 7 8.800 8T 35.300 9T
2014-05-17 2014 Connecticut Xcel State Championships Arena Gymnastics Inc. 4 XS Jr 10 8.400 14 8.750 10 9.050 8T 8.700 10 34.900 12T
2014-02-21 2014 February Flip Invitational Arena Gymnastics Inc. 1 XS 10 & under 6.550 14 9.175 10 8.600 10 8.925 6T 33.250 14
2013-12-13 2013 Reindeer Games Arena Gymnastics Inc. 2 XS Junior 7.500 18 8.800 14T 9.200 2T 8.500 12 34.000 15
Get your scores on
a t-shirt, pin, or hoodie

www.lazysuits.com